sensor_id;sensor_type;location;lat;lon;timestamp;P1;durP1;ratioP1;P2;durP2;ratioP2
21237;SDS011;10777;50.828;3.264;2022-11-15T00:00:03;24.97;;;15.97;;
21237;SDS011;10777;50.828;3.264;2022-11-15T00:02:29;30.57;;;15.90;;
21237;SDS011;10777;50.828;3.264;2022-11-15T00:04:55;28.63;;;16.03;;
21237;SDS011;10777;50.828;3.264;2022-11-15T00:07:20;31.67;;;15.93;;
21237;SDS011;10777;50.828;3.264;2022-11-15T00:09:46;31.23;;;14.93;;
21237;SDS011;10777;50.828;3.264;2022-11-15T00:12:13;21.37;;;13.10;;
21237;SDS011;10777;50.828;3.264;2022-11-15T00:14:38;28.47;;;14.07;;
21237;SDS011;10777;50.828;3.264;2022-11-15T00:17:07;23.77;;;13.07;;
21237;SDS011;10777;50.828;3.264;2022-11-15T00:19:33;24.10;;;11.90;;
21237;SDS011;10777;50.828;3.264;2022-11-15T00:21:59;24.50;;;10.77;;
21237;SDS011;10777;50.828;3.264;2022-11-15T00:24:25;25.63;;;11.03;;
21237;SDS011;10777;50.828;3.264;2022-11-15T00:26:51;23.77;;;10.90;;
21237;SDS011;10777;50.828;3.264;2022-11-15T00:29:16;20.87;;;10.20;;
21237;SDS011;10777;50.828;3.264;2022-11-15T00:31:42;26.03;;;12.40;;
21237;SDS011;10777;50.828;3.264;2022-11-15T00:34:09;20.00;;;11.57;;
21237;SDS011;10777;50.828;3.264;2022-11-15T00:36:35;23.03;;;12.63;;
21237;SDS011;10777;50.828;3.264;2022-11-15T00:39:03;21.67;;;12.73;;
21237;SDS011;10777;50.828;3.264;2022-11-15T00:41:29;23.03;;;12.93;;
21237;SDS011;10777;50.828;3.264;2022-11-15T00:43:55;27.63;;;13.47;;
21237;SDS011;10777;50.828;3.264;2022-11-15T00:46:21;24.13;;;13.57;;
21237;SDS011;10777;50.828;3.264;2022-11-15T00:48:46;24.27;;;14.00;;
21237;SDS011;10777;50.828;3.264;2022-11-15T00:51:12;23.03;;;13.37;;
21237;SDS011;10777;50.828;3.264;2022-11-15T00:53:37;25.57;;;14.03;;
21237;SDS011;10777;50.828;3.264;2022-11-15T00:56:03;24.80;;;14.17;;
21237;SDS011;10777;50.828;3.264;2022-11-15T00:58:29;22.67;;;13.97;;
21237;SDS011;10777;50.828;3.264;2022-11-15T01:00:54;24.83;;;14.43;;
21237;SDS011;10777;50.828;3.264;2022-11-15T01:03:20;24.47;;;13.63;;
21237;SDS011;10777;50.828;3.264;2022-11-15T01:05:45;28.47;;;13.23;;
21237;SDS011;10777;50.828;3.264;2022-11-15T01:08:12;21.93;;;11.97;;
21237;SDS011;10777;50.828;3.264;2022-11-15T01:10:39;28.23;;;13.53;;
21237;SDS011;10777;50.828;3.264;2022-11-15T01:13:04;22.27;;;12.10;;
21237;SDS011;10777;50.828;3.264;2022-11-15T01:15:30;22.63;;;12.20;;
21237;SDS011;10777;50.828;3.264;2022-11-15T01:17:55;20.67;;;11.03;;
21237;SDS011;10777;50.828;3.264;2022-11-15T01:20:21;25.13;;;12.13;;
21237;SDS011;10777;50.828;3.264;2022-11-15T01:22:47;25.37;;;11.03;;
21237;SDS011;10777;50.828;3.264;2022-11-15T01:25:12;22.10;;;10.87;;
21237;SDS011;10777;50.828;3.264;2022-11-15T01:27:38;19.37;;;10.77;;
21237;SDS011;10777;50.828;3.264;2022-11-15T01:30:03;27.60;;;10.47;;
21237;SDS011;10777;50.828;3.264;2022-11-15T01:32:30;22.53;;;10.40;;
21237;SDS011;10777;50.828;3.264;2022-11-15T01:34:55;25.97;;;10.87;;
21237;SDS011;10777;50.828;3.264;2022-11-15T01:37:21;19.57;;;10.23;;
21237;SDS011;10777;50.828;3.264;2022-11-15T01:39:46;17.53;;;10.10;;
21237;SDS011;10777;50.828;3.264;2022-11-15T01:42:12;18.53;;;9.70;;
21237;SDS011;10777;50.828;3.264;2022-11-15T01:44:54;18.83;;;9.97;;
21237;SDS011;10777;50.828;3.264;2022-11-15T01:47:21;25.43;;;10.17;;
21237;SDS011;10777;50.828;3.264;2022-11-15T01:50:08;26.30;;;9.77;;
21237;SDS011;10777;50.828;3.264;2022-11-15T01:52:37;18.63;;;9.30;;
21237;SDS011;10777;50.828;3.264;2022-11-15T01:55:08;17.50;;;8.53;;
21237;SDS011;10777;50.828;3.264;2022-11-15T01:57:39;20.63;;;9.40;;
21237;SDS011;10777;50.828;3.264;2022-11-15T02:00:08;14.67;;;8.73;;
21237;SDS011;10777;50.828;3.264;2022-11-15T02:02:34;25.53;;;9.20;;
21237;SDS011;10777;50.828;3.264;2022-11-15T02:05:02;19.17;;;9.17;;
21237;SDS011;10777;50.828;3.264;2022-11-15T02:07:28;20.97;;;9.13;;
21237;SDS011;10777;50.828;3.264;2022-11-15T02:09:54;15.03;;;7.67;;
21237;SDS011;10777;50.828;3.264;2022-11-15T02:12:23;16.20;;;7.03;;
21237;SDS011;10777;50.828;3.264;2022-11-15T02:14:51;19.57;;;7.30;;
21237;SDS011;10777;50.828;3.264;2022-11-15T02:17:31;15.97;;;6.70;;
21237;SDS011;10777;50.828;3.264;2022-11-15T02:20:27;10.40;;;5.60;;
21237;SDS011;10777;50.828;3.264;2022-11-15T02:23:22;11.03;;;5.70;;
21237;SDS011;10777;50.828;3.264;2022-11-15T02:29:23;16.07;;;4.47;;
21237;SDS011;10777;50.828;3.264;2022-11-15T02:32:06;9.27;;;4.67;;
21237;SDS011;10777;50.828;3.264;2022-11-15T02:35:00;14.73;;;5.10;;
21237;SDS011;10777;50.828;3.264;2022-11-15T02:40:34;14.77;;;4.87;;
21237;SDS011;10777;50.828;3.264;2022-11-15T02:43:14;9.40;;;4.30;;
21237;SDS011;10777;50.828;3.264;2022-11-15T02:46:12;15.13;;;5.30;;
21237;SDS011;10777;50.828;3.264;2022-11-15T02:48:44;13.70;;;4.53;;
21237;SDS011;10777;50.828;3.264;2022-11-15T02:51:11;11.27;;;4.07;;
21237;SDS011;10777;50.828;3.264;2022-11-15T02:53:38;10.53;;;4.23;;
21237;SDS011;10777;50.828;3.264;2022-11-15T02:56:04;12.63;;;4.70;;
21237;SDS011;10777;50.828;3.264;2022-11-15T02:58:35;12.07;;;4.83;;
21237;SDS011;10777;50.828;3.264;2022-11-15T03:04:36;13.47;;;4.70;;
21237;SDS011;10777;50.828;3.264;2022-11-15T03:07:19;15.57;;;5.03;;
21237;SDS011;10777;50.828;3.264;2022-11-15T03:09:55;10.67;;;4.83;;
21237;SDS011;10777;50.828;3.264;2022-11-15T03:15:21;17.07;;;5.60;;
21237;SDS011;10777;50.828;3.264;2022-11-15T03:18:02;11.10;;;4.90;;
21237;SDS011;10777;50.828;3.264;2022-11-15T03:20:32;11.80;;;5.20;;
21237;SDS011;10777;50.828;3.264;2022-11-15T03:23:03;10.47;;;5.07;;
21237;SDS011;10777;50.828;3.264;2022-11-15T03:25:32;10.17;;;5.20;;
21237;SDS011;10777;50.828;3.264;2022-11-15T03:28:01;13.47;;;5.43;;
21237;SDS011;10777;50.828;3.264;2022-11-15T03:30:31;15.10;;;6.10;;
21237;SDS011;10777;50.828;3.264;2022-11-15T03:32:59;16.83;;;5.67;;
21237;SDS011;10777;50.828;3.264;2022-11-15T03:35:28;14.73;;;6.50;;
21237;SDS011;10777;50.828;3.264;2022-11-15T03:38:00;13.13;;;5.90;;
21237;SDS011;10777;50.828;3.264;2022-11-15T03:40:38;16.93;;;7.20;;
21237;SDS011;10777;50.828;3.264;2022-11-15T03:43:10;12.90;;;6.37;;
21237;SDS011;10777;50.828;3.264;2022-11-15T03:46:01;18.07;;;7.07;;
21237;SDS011;10777;50.828;3.264;2022-11-15T03:48:33;19.83;;;6.13;;
21237;SDS011;10777;50.828;3.264;2022-11-15T03:51:03;16.37;;;6.63;;
21237;SDS011;10777;50.828;3.264;2022-11-15T03:53:30;13.47;;;5.80;;
21237;SDS011;10777;50.828;3.264;2022-11-15T03:55:56;15.47;;;6.37;;
21237;SDS011;10777;50.828;3.264;2022-11-15T03:58:22;17.87;;;7.10;;
21237;SDS011;10777;50.828;3.264;2022-11-15T04:00:48;16.53;;;6.50;;
21237;SDS011;10777;50.828;3.264;2022-11-15T04:03:14;18.63;;;6.60;;
21237;SDS011;10777;50.828;3.264;2022-11-15T04:05:39;15.03;;;7.43;;
21237;SDS011;10777;50.828;3.264;2022-11-15T04:08:05;11.33;;;6.07;;
21237;SDS011;10777;50.828;3.264;2022-11-15T04:10:30;13.73;;;6.83;;
21237;SDS011;10777;50.828;3.264;2022-11-15T04:12:56;12.27;;;6.13;;
21237;SDS011;10777;50.828;3.264;2022-11-15T04:15:23;14.40;;;6.27;;
21237;SDS011;10777;50.828;3.264;2022-11-15T04:17:50;18.13;;;6.20;;
21237;SDS011;10777;50.828;3.264;2022-11-15T04:20:18;15.43;;;6.57;;
21237;SDS011;10777;50.828;3.264;2022-11-15T04:23:10;14.10;;;5.43;;
21237;SDS011;10777;50.828;3.264;2022-11-15T04:26:00;15.23;;;6.70;;
21237;SDS011;10777;50.828;3.264;2022-11-15T04:28:27;17.63;;;6.30;;
21237;SDS011;10777;50.828;3.264;2022-11-15T04:30:53;12.50;;;5.90;;
21237;SDS011;10777;50.828;3.264;2022-11-15T04:33:19;17.47;;;6.10;;
21237;SDS011;10777;50.828;3.264;2022-11-15T04:35:47;12.63;;;6.87;;
21237;SDS011;10777;50.828;3.264;2022-11-15T04:38:33;14.50;;;6.10;;
21237;SDS011;10777;50.828;3.264;2022-11-15T04:40:59;10.93;;;5.23;;
21237;SDS011;10777;50.828;3.264;2022-11-15T04:43:25;10.37;;;5.53;;
21237;SDS011;10777;50.828;3.264;2022-11-15T04:45:51;16.90;;;5.50;;
21237;SDS011;10777;50.828;3.264;2022-11-15T04:48:16;15.57;;;5.37;;
21237;SDS011;10777;50.828;3.264;2022-11-15T04:50:47;12.97;;;5.63;;
21237;SDS011;10777;50.828;3.264;2022-11-15T04:53:13;15.07;;;5.90;;
21237;SDS011;10777;50.828;3.264;2022-11-15T04:55:38;14.10;;;5.10;;
21237;SDS011;10777;50.828;3.264;2022-11-15T04:58:04;12.23;;;4.63;;
21237;SDS011;10777;50.828;3.264;2022-11-15T05:00:30;9.87;;;4.47;;
21237;SDS011;10777;50.828;3.264;2022-11-15T05:02:56;14.40;;;4.67;;
21237;SDS011;10777;50.828;3.264;2022-11-15T05:05:42;12.20;;;4.60;;
21237;SDS011;10777;50.828;3.264;2022-11-15T05:08:07;12.67;;;4.10;;
21237;SDS011;10777;50.828;3.264;2022-11-15T05:10:33;13.30;;;4.93;;
21237;SDS011;10777;50.828;3.264;2022-11-15T05:12:58;13.70;;;4.53;;
21237;SDS011;10777;50.828;3.264;2022-11-15T05:15:24;10.40;;;3.80;;
21237;SDS011;10777;50.828;3.264;2022-11-15T05:17:50;13.57;;;4.40;;
21237;SDS011;10777;50.828;3.264;2022-11-15T05:20:15;7.53;;;3.77;;
21237;SDS011;10777;50.828;3.264;2022-11-15T05:22:41;9.90;;;3.90;;
21237;SDS011;10777;50.828;3.264;2022-11-15T05:25:07;8.60;;;4.00;;
21237;SDS011;10777;50.828;3.264;2022-11-15T05:27:34;11.23;;;3.73;;
21237;SDS011;10777;50.828;3.264;2022-11-15T05:29:59;11.77;;;3.97;;
21237;SDS011;10777;50.828;3.264;2022-11-15T05:32:25;12.87;;;4.17;;
21237;SDS011;10777;50.828;3.264;2022-11-15T05:34:51;12.40;;;3.83;;
21237;SDS011;10777;50.828;3.264;2022-11-15T05:37:17;8.17;;;3.80;;
21237;SDS011;10777;50.828;3.264;2022-11-15T05:39:43;8.77;;;4.20;;
21237;SDS011;10777;50.828;3.264;2022-11-15T05:42:09;11.67;;;4.67;;
21237;SDS011;10777;50.828;3.264;2022-11-15T05:44:38;11.27;;;4.47;;
21237;SDS011;10777;50.828;3.264;2022-11-15T05:47:06;10.83;;;4.90;;
21237;SDS011;10777;50.828;3.264;2022-11-15T05:49:35;7.73;;;4.73;;
21237;SDS011;10777;50.828;3.264;2022-11-15T05:52:04;8.43;;;4.83;;
21237;SDS011;10777;50.828;3.264;2022-11-15T05:54:32;17.80;;;4.37;;
21237;SDS011;10777;50.828;3.264;2022-11-15T05:56:59;11.00;;;5.13;;
21237;SDS011;10777;50.828;3.264;2022-11-15T05:59:25;13.77;;;5.90;;
21237;SDS011;10777;50.828;3.264;2022-11-15T06:01:53;19.13;;;5.80;;
21237;SDS011;10777;50.828;3.264;2022-11-15T06:04:19;14.80;;;6.47;;
21237;SDS011;10777;50.828;3.264;2022-11-15T06:06:44;12.83;;;6.70;;
21237;SDS011;10777;50.828;3.264;2022-11-15T06:09:10;17.70;;;8.57;;
21237;SDS011;10777;50.828;3.264;2022-11-15T06:11:35;16.40;;;8.73;;
21237;SDS011;10777;50.828;3.264;2022-11-15T06:14:01;16.77;;;9.23;;
21237;SDS011;10777;50.828;3.264;2022-11-15T06:16:29;16.50;;;9.37;;
21237;SDS011;10777;50.828;3.264;2022-11-15T06:18:55;17.30;;;9.50;;
21237;SDS011;10777;50.828;3.264;2022-11-15T06:21:21;15.37;;;8.93;;
21237;SDS011;10777;50.828;3.264;2022-11-15T06:23:47;17.97;;;9.97;;
21237;SDS011;10777;50.828;3.264;2022-11-15T06:26:12;18.23;;;9.97;;
21237;SDS011;10777;50.828;3.264;2022-11-15T06:28:38;20.87;;;9.67;;
21237;SDS011;10777;50.828;3.264;2022-11-15T06:31:04;20.20;;;9.83;;
21237;SDS011;10777;50.828;3.264;2022-11-15T06:33:32;20.20;;;9.80;;
21237;SDS011;10777;50.828;3.264;2022-11-15T06:36:06;19.30;;;10.37;;
21237;SDS011;10777;50.828;3.264;2022-11-15T06:38:38;17.13;;;9.40;;
21237;SDS011;10777;50.828;3.264;2022-11-15T06:41:06;15.40;;;8.97;;
21237;SDS011;10777;50.828;3.264;2022-11-15T06:43:33;25.13;;;11.03;;
21237;SDS011;10777;50.828;3.264;2022-11-15T06:46:00;16.10;;;10.10;;
21237;SDS011;10777;50.828;3.264;2022-11-15T06:48:27;18.60;;;10.23;;
21237;SDS011;10777;50.828;3.264;2022-11-15T06:50:55;15.87;;;9.03;;
21237;SDS011;10777;50.828;3.264;2022-11-15T06:53:22;17.43;;;9.30;;
21237;SDS011;10777;50.828;3.264;2022-11-15T06:55:48;19.47;;;10.33;;
21237;SDS011;10777;50.828;3.264;2022-11-15T06:58:14;22.00;;;9.30;;
21237;SDS011;10777;50.828;3.264;2022-11-15T07:00:39;19.40;;;9.67;;
21237;SDS011;10777;50.828;3.264;2022-11-15T07:03:05;16.37;;;9.60;;
21237;SDS011;10777;50.828;3.264;2022-11-15T07:05:31;16.33;;;8.67;;
21237;SDS011;10777;50.828;3.264;2022-11-15T07:07:57;19.00;;;8.80;;
21237;SDS011;10777;50.828;3.264;2022-11-15T07:10:24;15.50;;;8.93;;
21237;SDS011;10777;50.828;3.264;2022-11-15T07:12:51;12.63;;;7.47;;
21237;SDS011;10777;50.828;3.264;2022-11-15T07:15:19;16.10;;;7.63;;
21237;SDS011;10777;50.828;3.264;2022-11-15T07:17:45;16.00;;;8.60;;
21237;SDS011;10777;50.828;3.264;2022-11-15T07:20:11;14.47;;;7.53;;
21237;SDS011;10777;50.828;3.264;2022-11-15T07:22:38;16.70;;;8.13;;
21237;SDS011;10777;50.828;3.264;2022-11-15T07:25:04;13.40;;;7.50;;
21237;SDS011;10777;50.828;3.264;2022-11-15T07:27:30;20.70;;;7.40;;
21237;SDS011;10777;50.828;3.264;2022-11-15T07:29:56;17.17;;;6.80;;
21237;SDS011;10777;50.828;3.264;2022-11-15T07:32:21;15.50;;;6.90;;
21237;SDS011;10777;50.828;3.264;2022-11-15T07:34:47;14.83;;;6.97;;
21237;SDS011;10777;50.828;3.264;2022-11-15T07:37:13;9.10;;;5.50;;
21237;SDS011;10777;50.828;3.264;2022-11-15T07:39:39;13.83;;;6.00;;
21237;SDS011;10777;50.828;3.264;2022-11-15T07:42:04;15.80;;;6.00;;
21237;SDS011;10777;50.828;3.264;2022-11-15T07:44:50;12.60;;;5.07;;
21237;SDS011;10777;50.828;3.264;2022-11-15T07:47:16;9.10;;;5.13;;
21237;SDS011;10777;50.828;3.264;2022-11-15T07:49:41;11.93;;;4.40;;
21237;SDS011;10777;50.828;3.264;2022-11-15T07:52:07;10.43;;;4.03;;
21237;SDS011;10777;50.828;3.264;2022-11-15T07:54:33;9.87;;;4.87;;
21237;SDS011;10777;50.828;3.264;2022-11-15T07:56:58;11.23;;;4.90;;
21237;SDS011;10777;50.828;3.264;2022-11-15T07:59:24;11.00;;;4.40;;
21237;SDS011;10777;50.828;3.264;2022-11-15T08:01:50;9.97;;;4.23;;
21237;SDS011;10777;50.828;3.264;2022-11-15T08:04:15;6.77;;;3.83;;
21237;SDS011;10777;50.828;3.264;2022-11-15T08:06:41;9.97;;;3.57;;
21237;SDS011;10777;50.828;3.264;2022-11-15T08:09:07;11.20;;;3.90;;
21237;SDS011;10777;50.828;3.264;2022-11-15T08:11:33;8.60;;;3.27;;
21237;SDS011;10777;50.828;3.264;2022-11-15T08:13:58;8.63;;;3.57;;
21237;SDS011;10777;50.828;3.264;2022-11-15T08:16:24;13.60;;;3.50;;
21237;SDS011;10777;50.828;3.264;2022-11-15T08:18:50;14.27;;;3.80;;
21237;SDS011;10777;50.828;3.264;2022-11-15T08:21:18;13.07;;;3.70;;
21237;SDS011;10777;50.828;3.264;2022-11-15T08:23:45;7.23;;;3.00;;
21237;SDS011;10777;50.828;3.264;2022-11-15T08:26:11;5.97;;;3.03;;
21237;SDS011;10777;50.828;3.264;2022-11-15T08:28:36;10.77;;;3.37;;
21237;SDS011;10777;50.828;3.264;2022-11-15T08:31:02;17.07;;;4.03;;
21237;SDS011;10777;50.828;3.264;2022-11-15T08:33:29;18.47;;;7.97;;
21237;SDS011;10777;50.828;3.264;2022-11-15T08:35:56;10.37;;;3.13;;
21237;SDS011;10777;50.828;3.264;2022-11-15T08:38:24;8.80;;;2.97;;
21237;SDS011;10777;50.828;3.264;2022-11-15T08:40:51;7.53;;;3.47;;
21237;SDS011;10777;50.828;3.264;2022-11-15T08:43:18;5.57;;;2.63;;
21237;SDS011;10777;50.828;3.264;2022-11-15T08:45:44;11.60;;;3.03;;
21237;SDS011;10777;50.828;3.264;2022-11-15T08:48:10;8.13;;;2.10;;
21237;SDS011;10777;50.828;3.264;2022-11-15T08:50:36;6.47;;;2.73;;
21237;SDS011;10777;50.828;3.264;2022-11-15T08:53:09;7.93;;;3.20;;
21237;SDS011;10777;50.828;3.264;2022-11-15T08:55:36;11.13;;;2.80;;
21237;SDS011;10777;50.828;3.264;2022-11-15T08:58:03;13.43;;;2.20;;
21237;SDS011;10777;50.828;3.264;2022-11-15T09:00:29;8.20;;;2.63;;
21237;SDS011;10777;50.828;3.264;2022-11-15T09:02:55;10.17;;;2.37;;
21237;SDS011;10777;50.828;3.264;2022-11-15T09:05:21;8.30;;;2.07;;
21237;SDS011;10777;50.828;3.264;2022-11-15T09:07:46;9.93;;;2.53;;
21237;SDS011;10777;50.828;3.264;2022-11-15T09:10:12;11.00;;;1.70;;
21237;SDS011;10777;50.828;3.264;2022-11-15T09:12:38;7.93;;;2.00;;
21237;SDS011;10777;50.828;3.264;2022-11-15T09:15:05;8.17;;;2.13;;
21237;SDS011;10777;50.828;3.264;2022-11-15T09:17:33;8.47;;;2.20;;
21237;SDS011;10777;50.828;3.264;2022-11-15T09:19:59;9.47;;;1.97;;
21237;SDS011;10777;50.828;3.264;2022-11-15T09:22:24;12.87;;;2.07;;
21237;SDS011;10777;50.828;3.264;2022-11-15T09:24:50;8.90;;;2.00;;
21237;SDS011;10777;50.828;3.264;2022-11-15T09:27:16;8.87;;;1.80;;
21237;SDS011;10777;50.828;3.264;2022-11-15T09:29:42;4.73;;;1.73;;
21237;SDS011;10777;50.828;3.264;2022-11-15T09:32:08;7.80;;;1.97;;
21237;SDS011;10777;50.828;3.264;2022-11-15T09:34:34;8.40;;;2.40;;
21237;SDS011;10777;50.828;3.264;2022-11-15T09:37:00;13.80;;;2.17;;
21237;SDS011;10777;50.828;3.264;2022-11-15T09:39:26;10.90;;;2.00;;
21237;SDS011;10777;50.828;3.264;2022-11-15T09:41:58;7.10;;;2.30;;
21237;SDS011;10777;50.828;3.264;2022-11-15T09:44:43;10.83;;;2.00;;
21237;SDS011;10777;50.828;3.264;2022-11-15T09:50:39;8.40;;;1.47;;
21237;SDS011;10777;50.828;3.264;2022-11-15T09:53:13;11.57;;;2.83;;
21237;SDS011;10777;50.828;3.264;2022-11-15T09:55:47;7.13;;;2.07;;
21237;SDS011;10777;50.828;3.264;2022-11-15T09:58:32;6.40;;;1.90;;
21237;SDS011;10777;50.828;3.264;2022-11-15T10:01:04;8.83;;;1.60;;
21237;SDS011;10777;50.828;3.264;2022-11-15T10:03:37;5.30;;;1.53;;
21237;SDS011;10777;50.828;3.264;2022-11-15T10:06:08;5.43;;;2.13;;
21237;SDS011;10777;50.828;3.264;2022-11-15T10:08:50;3.63;;;1.37;;
21237;SDS011;10777;50.828;3.264;2022-11-15T10:11:30;7.63;;;2.30;;
21237;SDS011;10777;50.828;3.264;2022-11-15T10:14:01;9.90;;;1.90;;
21237;SDS011;10777;50.828;3.264;2022-11-15T10:16:49;8.63;;;1.90;;
21237;SDS011;10777;50.828;3.264;2022-11-15T10:19:42;4.97;;;1.80;;
21237;SDS011;10777;50.828;3.264;2022-11-15T10:22:24;5.23;;;1.53;;
21237;SDS011;10777;50.828;3.264;2022-11-15T10:25:12;9.53;;;2.17;;
21237;SDS011;10777;50.828;3.264;2022-11-15T10:27:43;4.87;;;2.13;;
21237;SDS011;10777;50.828;3.264;2022-11-15T10:30:15;7.03;;;1.83;;
21237;SDS011;10777;50.828;3.264;2022-11-15T10:32:43;7.30;;;1.73;;
21237;SDS011;10777;50.828;3.264;2022-11-15T10:35:19;7.57;;;2.63;;
21237;SDS011;10777;50.828;3.264;2022-11-15T10:37:49;9.27;;;1.90;;
21237;SDS011;10777;50.828;3.264;2022-11-15T10:40:18;9.07;;;2.03;;
21237;SDS011;10777;50.828;3.264;2022-11-15T10:42:47;6.40;;;1.70;;
21237;SDS011;10777;50.828;3.264;2022-11-15T10:45:31;4.83;;;1.47;;
21237;SDS011;10777;50.828;3.264;2022-11-15T10:48:18;8.10;;;2.30;;
21237;SDS011;10777;50.828;3.264;2022-11-15T10:50:46;6.07;;;1.83;;
21237;SDS011;10777;50.828;3.264;2022-11-15T10:53:30;7.70;;;1.80;;
21237;SDS011;10777;50.828;3.264;2022-11-15T10:56:05;8.13;;;2.00;;
21237;SDS011;10777;50.828;3.264;2022-11-15T10:58:35;7.53;;;1.73;;
21237;SDS011;10777;50.828;3.264;2022-11-15T11:01:09;19.00;;;2.37;;
21237;SDS011;10777;50.828;3.264;2022-11-15T11:03:38;6.60;;;1.93;;
21237;SDS011;10777;50.828;3.264;2022-11-15T11:06:20;7.20;;;1.80;;
21237;SDS011;10777;50.828;3.264;2022-11-15T11:08:55;8.37;;;1.83;;
21237;SDS011;10777;50.828;3.264;2022-11-15T11:11:23;16.57;;;2.80;;
21237;SDS011;10777;50.828;3.264;2022-11-15T11:13:49;6.00;;;2.00;;
21237;SDS011;10777;50.828;3.264;2022-11-15T11:16:20;6.33;;;2.27;;
21237;SDS011;10777;50.828;3.264;2022-11-15T11:19:03;9.37;;;1.70;;
21237;SDS011;10777;50.828;3.264;2022-11-15T11:22:09;5.50;;;1.43;;
21237;SDS011;10777;50.828;3.264;2022-11-15T11:25:01;5.83;;;2.00;;
21237;SDS011;10777;50.828;3.264;2022-11-15T11:27:56;12.67;;;2.13;;
21237;SDS011;10777;50.828;3.264;2022-11-15T11:33:39;9.47;;;1.80;;
21237;SDS011;10777;50.828;3.264;2022-11-15T11:36:32;8.83;;;2.00;;
21237;SDS011;10777;50.828;3.264;2022-11-15T11:39:18;7.37;;;2.47;;
21237;SDS011;10777;50.828;3.264;2022-11-15T11:41:56;14.53;;;3.50;;
21237;SDS011;10777;50.828;3.264;2022-11-15T11:44:52;11.10;;;2.93;;
21237;SDS011;10777;50.828;3.264;2022-11-15T11:47:40;8.30;;;1.90;;
21237;SDS011;10777;50.828;3.264;2022-11-15T11:50:13;5.13;;;2.10;;
21237;SDS011;10777;50.828;3.264;2022-11-15T11:52:53;6.60;;;2.00;;
21237;SDS011;10777;50.828;3.264;2022-11-15T11:55:26;6.87;;;2.23;;
21237;SDS011;10777;50.828;3.264;2022-11-15T11:58:15;10.93;;;2.63;;
21237;SDS011;10777;50.828;3.264;2022-11-15T12:00:49;7.47;;;2.50;;
21237;SDS011;10777;50.828;3.264;2022-11-15T12:03:36;5.47;;;1.83;;
21237;SDS011;10777;50.828;3.264;2022-11-15T12:06:32;10.63;;;2.47;;
21237;SDS011;10777;50.828;3.264;2022-11-15T12:09:12;6.10;;;2.37;;
21237;SDS011;10777;50.828;3.264;2022-11-15T12:12:02;5.80;;;2.20;;
21237;SDS011;10777;50.828;3.264;2022-11-15T12:14:52;9.27;;;2.10;;
21237;SDS011;10777;50.828;3.264;2022-11-15T12:17:22;10.40;;;3.00;;
21237;SDS011;10777;50.828;3.264;2022-11-15T12:19:51;8.10;;;2.77;;
21237;SDS011;10777;50.828;3.264;2022-11-15T12:22:33;6.03;;;2.10;;
21237;SDS011;10777;50.828;3.264;2022-11-15T12:25:08;8.53;;;2.33;;
21237;SDS011;10777;50.828;3.264;2022-11-15T12:27:47;7.87;;;2.20;;
21237;SDS011;10777;50.828;3.264;2022-11-15T12:30:20;7.17;;;2.37;;
21237;SDS011;10777;50.828;3.264;2022-11-15T12:32:55;7.80;;;2.70;;
21237;SDS011;10777;50.828;3.264;2022-11-15T12:35:26;5.83;;;2.53;;
21237;SDS011;10777;50.828;3.264;2022-11-15T12:37:56;13.23;;;3.33;;
21237;SDS011;10777;50.828;3.264;2022-11-15T12:40:23;10.40;;;2.33;;
21237;SDS011;10777;50.828;3.264;2022-11-15T12:43:01;9.07;;;2.30;;
21237;SDS011;10777;50.828;3.264;2022-11-15T12:45:33;10.03;;;4.33;;
21237;SDS011;10777;50.828;3.264;2022-11-15T12:48:45;8.27;;;2.20;;
21237;SDS011;10777;50.828;3.264;2022-11-15T12:51:07;9.17;;;2.03;;
21237;SDS011;10777;50.828;3.264;2022-11-15T12:53:33;4.17;;;2.13;;
21237;SDS011;10777;50.828;3.264;2022-11-15T12:56:20;6.60;;;2.20;;
21237;SDS011;10777;50.828;3.264;2022-11-15T12:58:51;4.70;;;1.83;;
21237;SDS011;10777;50.828;3.264;2022-11-15T13:04:22;6.13;;;1.83;;
21237;SDS011;10777;50.828;3.264;2022-11-15T13:06:56;8.90;;;2.07;;
21237;SDS011;10777;50.828;3.264;2022-11-15T13:18:26;3.93;;;1.90;;
21237;SDS011;10777;50.828;3.264;2022-11-15T13:20:58;8.83;;;2.57;;
21237;SDS011;10777;50.828;3.264;2022-11-15T13:23:25;11.03;;;3.20;;
21237;SDS011;10777;50.828;3.264;2022-11-15T13:26:02;8.33;;;2.80;;
21237;SDS011;10777;50.828;3.264;2022-11-15T13:28:37;4.37;;;2.20;;
21237;SDS011;10777;50.828;3.264;2022-11-15T13:31:17;9.73;;;2.57;;
21237;SDS011;10777;50.828;3.264;2022-11-15T13:33:56;4.13;;;2.33;;
21237;SDS011;10777;50.828;3.264;2022-11-15T13:36:26;13.20;;;2.50;;
21237;SDS011;10777;50.828;3.264;2022-11-15T13:41:56;5.97;;;2.07;;
21237;SDS011;10777;50.828;3.264;2022-11-15T13:44:27;9.67;;;2.67;;
21237;SDS011;10777;50.828;3.264;2022-11-15T13:47:02;4.53;;;1.90;;
21237;SDS011;10777;50.828;3.264;2022-11-15T13:49:39;5.53;;;2.37;;
21237;SDS011;10777;50.828;3.264;2022-11-15T13:52:05;5.90;;;2.47;;
21237;SDS011;10777;50.828;3.264;2022-11-15T13:54:34;7.33;;;2.10;;
21237;SDS011;10777;50.828;3.264;2022-11-15T13:57:12;4.07;;;2.13;;
21237;SDS011;10777;50.828;3.264;2022-11-15T13:59:45;6.50;;;2.23;;
21237;SDS011;10777;50.828;3.264;2022-11-15T14:02:15;3.73;;;2.40;;
21237;SDS011;10777;50.828;3.264;2022-11-15T14:04:46;3.63;;;1.93;;
21237;SDS011;10777;50.828;3.264;2022-11-15T14:07:16;5.47;;;1.83;;
21237;SDS011;10777;50.828;3.264;2022-11-15T14:09:44;5.33;;;2.30;;
21237;SDS011;10777;50.828;3.264;2022-11-15T14:14:59;7.70;;;2.00;;
21237;SDS011;10777;50.828;3.264;2022-11-15T14:17:34;10.43;;;2.63;;
21237;SDS011;10777;50.828;3.264;2022-11-15T14:20:02;4.83;;;2.33;;
21237;SDS011;10777;50.828;3.264;2022-11-15T14:22:51;5.67;;;2.33;;
21237;SDS011;10777;50.828;3.264;2022-11-15T14:25:20;18.60;;;7.07;;
21237;SDS011;10777;50.828;3.264;2022-11-15T14:30:42;8.50;;;2.47;;
21237;SDS011;10777;50.828;3.264;2022-11-15T14:33:18;5.33;;;2.50;;
21237;SDS011;10777;50.828;3.264;2022-11-15T14:36:03;5.53;;;2.63;;
21237;SDS011;10777;50.828;3.264;2022-11-15T14:38:31;12.93;;;3.27;;
21237;SDS011;10777;50.828;3.264;2022-11-15T14:40:56;10.50;;;3.47;;
21237;SDS011;10777;50.828;3.264;2022-11-15T14:43:23;11.43;;;2.90;;
21237;SDS011;10777;50.828;3.264;2022-11-15T14:45:49;5.90;;;3.20;;
21237;SDS011;10777;50.828;3.264;2022-11-15T14:48:14;5.20;;;2.93;;
21237;SDS011;10777;50.828;3.264;2022-11-15T14:50:40;5.60;;;2.70;;
21237;SDS011;10777;50.828;3.264;2022-11-15T14:53:06;6.10;;;3.00;;
21237;SDS011;10777;50.828;3.264;2022-11-15T14:55:33;4.67;;;2.80;;
21237;SDS011;10777;50.828;3.264;2022-11-15T14:58:01;5.90;;;2.73;;
21237;SDS011;10777;50.828;3.264;2022-11-15T15:00:28;7.17;;;3.03;;
21237;SDS011;10777;50.828;3.264;2022-11-15T15:02:56;5.50;;;3.00;;
21237;SDS011;10777;50.828;3.264;2022-11-15T15:05:23;6.23;;;3.00;;
21237;SDS011;10777;50.828;3.264;2022-11-15T15:07:54;8.77;;;3.17;;
21237;SDS011;10777;50.828;3.264;2022-11-15T15:10:20;8.73;;;3.57;;
21237;SDS011;10777;50.828;3.264;2022-11-15T15:12:46;7.67;;;3.83;;
21237;SDS011;10777;50.828;3.264;2022-11-15T15:15:13;7.30;;;3.20;;
21237;SDS011;10777;50.828;3.264;2022-11-15T15:17:41;6.87;;;3.70;;
21237;SDS011;10777;50.828;3.264;2022-11-15T15:20:07;5.80;;;3.43;;
21237;SDS011;10777;50.828;3.264;2022-11-15T15:22:35;5.30;;;3.40;;
21237;SDS011;10777;50.828;3.264;2022-11-15T15:25:02;6.80;;;3.10;;
21237;SDS011;10777;50.828;3.264;2022-11-15T15:27:38;7.33;;;3.27;;
21237;SDS011;10777;50.828;3.264;2022-11-15T15:30:03;10.30;;;4.37;;
21237;SDS011;10777;50.828;3.264;2022-11-15T15:32:29;7.23;;;3.20;;
21237;SDS011;10777;50.828;3.264;2022-11-15T15:34:55;4.70;;;3.27;;
21237;SDS011;10777;50.828;3.264;2022-11-15T15:37:22;6.00;;;3.33;;